Station: Murrurundi Gap  

  Atmospheric Gas Attenuation - ITU Rec 676-11   ----------------- dB/100km -----------------
Date Time Temp RH % AH g/m3 Dew Point Wind Direction Speed kph Gust kph Barometer mB Rainfall Since 9am 24GHz 47GHz 76GHz 122GHz 134GHz 241GHz
08/05 12:30 11.3 53 5.41 2.1 26 35 1019.8 0 12.9 21.8 28.9 75.1 61.0 206.8
08/05 12:20 11.1 52 5.24 1.6 26 32 1019.9 0 12.5 21.6 28.3 73.7 59.1 200.1
08/05 12:10 11 53 5.31 1.8 30 35 1020 0 12.7 21.8 28.6 74.4 60.0 203.4
08/05 12:00 11.5 52 5.37 2 28 37 1020.3 0 12.8 21.8 28.7 74.6 60.4 204.7
08/05 11:50 11.3 55 5.61 2.6 28 32 1020.2 0 13.3 22.2 29.6 77.1 63.4 215.4
08/05 11:40 10.2 55 5.24 1.6 33 39 1020.1 0 12.6 21.9 28.6 74.5 59.7 202.4
08/05 11:30 10 57 5.36 1.9 28 37 1020.4 0 12.8 22.1 29.2 75.9 61.4 208.1
08/05 11:20 10 56 5.26 1.6 30 33 1020.7 0 12.6 22.0 28.8 74.9 60.2 203.9
08/05 11:10 9.5 58 5.28 1.7 22 26 1020.9 0 12.7 22.1 29.1 75.6 60.8 206.0
08/05 11:00 9.4 59 5.34 1.8 22 33 1021 0 12.8 22.2 29.3 76.3 61.6 208.9
08/05 10:50 9.6 60 5.5 2.2 19 20 1021.1 0 13.1 22.4 29.9 77.8 63.5 215.4
08/05 10:40 8.9 59 5.17 1.3 20 20 1021.2 0 12.5 22.1 28.9 75.1 59.9 202.8
08/05 10:30 8.5 61 5.21 1.4 22 30 1021.2 0 12.6 22.3 29.2 75.9 60.7 205.6
08/05 10:20 7.9 62 5.09 1.1 28 32 1021.3 0 12.3 22.2 28.9 75.3 59.7 201.9
08/05 10:10 8.2 63 5.28 1.6 28 32 1021.4 0 12.7 22.5 29.6 76.9 61.9 209.5
08/05 10:00 7.6 63 5.08 1 22 26 1021.6 0 12.3 22.3 29.0 75.5 59.8 202.2
08/05 09:50 7.1 64 4.99 0.8 22 24 1021.5 0 12.1 22.3 28.9 75.0 59.1 199.5
08/05 09:40 6.7 65 4.94 0.6 19 22 1021.5 0 12.0 22.3 28.8 74.9 58.7 198.3
08/05 09:30 6.7 65 4.94 0.6 20 26 1021.5 0 12.0 22.3 28.8 74.9 58.7 198.3
08/05 09:20 7.1 67 5.23 1.4 19 20 1021.5 0 12.7 22.7 29.8 77.5 62.1 210.2
08/05 09:10 5.9 67 4.83 0.3 22 28 1021.7 0 11.8 22.3 28.7 74.5 57.9 195.4
08/05 09:00 5.4 69 4.82 0.2 24 32 1021.6 0 11.8 22.4 28.8 74.9 58.2 196.2
08/05 08:50 5.8 69 4.95 0.6 22 28 1021.4 0 12.1 22.5 29.2 75.8 59.5 201.0
08/05 08:40 5.8 70 5.02 0.8 22 26 1021.2 0 12.3 22.6 29.4 76.5 60.4 204.1
08/05 08:30 5.1 70 4.79 0.1 22 30 1021 0 11.8 22.4 28.8 74.8 58.0 195.4
08/05 08:20 5.2 71 4.89 0.4 20 20 1021.1 0 12.0 22.6 29.1 75.8 59.2 199.7
08/05 08:10 4.5 71 4.67 -0.3 24 28 1021.1 0 11.5 22.4 28.5 74.1 56.9 191.5
08/05 08:00 4.5 72 4.74 -0.1 19 26 1021.1 0 11.7 22.5 28.8 74.9 57.8 194.7
08/05 07:50 4.1 74 4.74 -0.1 20 24 1021.2 0 11.7 22.6 29.0 75.3 58.1 195.7
08/05 07:40 3.7 75 4.68 -0.3 22 24 1021.1 0 11.6 22.6 28.9 75.0 57.6 193.9
08/05 07:30 3.1 78 4.67 -0.4 19 26 1021 0 11.6 22.8 29.0 75.5 57.9 194.9
08/05 07:20 3.2 76 4.58 -0.6 19 19 1021.2 0 11.4 22.6 28.7 74.4 56.7 190.6
08/05 07:10 3 76 4.52 -0.8 13 15 1021.2 0 11.3 22.6 28.5 74.0 56.0 188.3
08/05 07:00 2.7 77 4.49 -0.9 13 15 1021.1 0 11.2 22.6 28.5 73.9 55.8 187.6
08/05 06:50 2.8 76 4.46 -1 13 15 1021.1 0 11.1 22.5 28.3 73.5 55.4 186.0
08/05 06:40 2.7 76 4.43 -1.1 7 7 1021.1 0 11.1 22.5 28.2 73.3 55.1 184.9
08/05 06:30 2.6 77 4.46 -1 15 19 1020.8 0 11.2 22.5 28.4 73.7 55.5 186.4
08/05 06:20 3.1 73 4.37 -1.3 15 17 1020.7 0 10.9 22.3 27.8 72.3 54.0 181.1
08/05 06:10 3.7 72 4.49 -0.9 28 30 1020.5 0 11.2 22.3 28.1 73.0 55.1 185.2
08/05 06:00 3.2 74 4.46 -1 17 26 1020.4 0 11.1 22.4 28.1 73.1 55.1 184.9
08/05 05:50 2.7 77 4.49 -0.9 15 17 1020.3 0 11.2 22.5 28.4 73.9 55.8 187.5
08/05 05:40 2.9 75 4.43 -1.1 17 19 1020.2 0 11.1 22.4 28.1 73.0 54.9 184.2
08/05 05:30 3.1 74 4.43 -1.1 19 20 1020.3 0 11.1 22.4 28.1 72.9 54.7 183.8
08/05 05:20 3.5 74 4.55 -0.7 19 20 1020.1 0 11.3 22.4 28.4 73.7 56.0 188.3
08/05 05:10 3.1 73 4.37 -1.3 19 20 1020.2 0 10.9 22.3 27.8 72.2 54.0 181.1
08/05 05:00 3.5 72 4.43 -1.1 19 24 1020.2 0 11.1 22.2 27.9 72.5 54.5 182.9
08/05 04:50 3.2 73 4.4 -1.2 19 20 1020.1 0 11.0 22.3 27.9 72.4 54.3 182.2
08/05 04:40 3.3 73 4.43 -1.1 19 20 1020.1 0 11.1 22.3 28.0 72.7 54.6 183.3
08/05 04:30 3.2 73 4.4 -1.2 15 19 1020.2 0 11.0 22.3 27.9 72.5 54.3 182.2
08/05 04:20 3.5 71 4.37 -1.3 11 13 1020.1 0 10.9 22.2 27.7 71.9 53.7 180.1
08/05 04:10 3.7 70 4.37 -1.3 11 13 1020.1 0 10.9 22.1 27.6 71.7 53.5 179.7
08/05 04:00 4 69 4.39 -1.2 13 17 1020.2 0 11.0 22.1 27.6 71.6 53.6 179.9
08/05 03:50 4 68 4.33 -1.4 11 13 1020.1 0 10.8 22.0 27.4 71.0 52.8 177.2
08/05 03:40 4.3 67 4.35 -1.3 11 17 1019.9 0 10.9 21.9 27.3 70.9 52.9 177.4
08/05 03:30 4.9 65 4.39 -1.1 19 30 1019.8 0 10.9 21.8 27.3 70.8 53.0 177.8
08/05 03:20 5 64 4.35 -1.2 13 15 1020 0 10.8 21.8 27.1 70.3 52.4 175.9
08/05 03:10 4.9 64 4.32 -1.3 19 20 1020 0 10.8 21.7 27.0 70.1 52.1 174.8
08/05 03:00 4.7 65 4.33 -1.3 11 37 1020 0 10.8 21.8 27.1 70.4 52.4 175.7
08/05 02:50 4.3 64 4.15 -1.9 2 4 1020.1 0 10.4 21.6 26.6 68.9 50.4 168.6
08/05 02:40 4.7 63 4.2 -1.7 11 11 1020.1 0 10.5 21.6 26.6 69.1 50.7 169.9
08/05 02:30 4.8 61 4.09 -2.1 6 9 1020.2 0 10.3 21.4 26.2 67.9 49.3 164.9
08/05 02:20 4.8 61 4.09 -2.1 6 7 1020.1 0 10.3 21.4 26.2 67.9 49.3 164.9
08/05 02:10 5 60 4.08 -2.1 9 11 1020.1 0 10.3 21.3 26.1 67.6 49.0 164.0
08/05 02:00 4.3 63 4.09 -2.1 9 17 1020.2 0 10.3 21.5 26.3 68.3 49.6 165.9
08/05 01:50 4.3 62 4.02 -2.3 11 13 1020.1 0 10.2 21.4 26.1 67.6 48.7 162.8
08/05 01:40 4.2 62 4 -2.4 11 13 1020.2 0 10.1 21.4 26.0 67.5 48.5 162.2
08/05 01:30 4.2 61 3.93 -2.6 9 15 1020.3 0 10.0 21.3 25.8 66.8 47.7 159.1
08/05 01:20 4.4 61 3.99 -2.4 11 13 1020.1 0 10.1 21.3 25.9 67.2 48.3 161.3
08/05 01:10 4.5 61 4.01 -2.4 7 7 1020.2 0 10.1 21.4 26.0 67.3 48.5 162.0
08/05 01:00 4.7 60 4 -2.4 13 20 1020.3 0 10.1 21.3 25.9 67.0 48.2 161.2
08/05 00:50 4.8 58 3.89 -2.7 13 17 1020.3 0 9.9 21.1 25.4 65.9 46.8 156.2
08/05 00:40 4.9 57 3.85 -2.9 17 24 1020.3 0 9.8 21.0 25.3 65.4 46.3 154.3
08/05 00:20 4.7 57 3.8 -3.1 11 15 1020.5 0 9.7 21.0 25.1 65.1 45.8 152.5
08/05 00:10 4.9 56 3.78 -3.1 6 7 1020.5 0 9.6 20.9 25.0 64.7 45.4 151.3
08/05 00:00 4.7 58 3.87 -2.8 9 15 1020.5 0 9.8 21.1 25.4 65.8 46.6 155.5
07/05 23:50 4.7 57 3.8 -3.1 9 11 1020.3 0 9.7 21.0 25.1 65.1 45.8 152.5
07/05 23:40 4.6 58 3.84 -2.9 6 7 1020.5 0 9.8 21.1 25.3 65.5 46.3 154.4
07/05 23:30 4.8 58 3.89 -2.7 9 15 1020.6 0 9.9 21.1 25.5 65.9 46.8 156.2
07/05 23:20 4.9 57 3.85 -2.9 6 7 1020.8 0 9.8 21.0 25.3 65.4 46.3 154.3
07/05 23:10 5 57 3.88 -2.8 11 13 1020.7 0 9.8 21.1 25.4 65.6 46.6 155.4
07/05 23:00 5.2 55 3.79 -3.1 9 17 1020.9 0 9.6 20.9 25.0 64.6 45.4 151.2
07/05 22:50 4.8 57 3.83 -3 7 9 1020.7 0 9.7 21.0 25.2 65.3 46.1 153.6
07/05 22:40 5.2 55 3.79 -3.1 11 13 1020.8 0 9.6 20.9 25.0 64.6 45.4 151.2
07/05 22:30 5.3 54 3.75 -3.2 15 30 1020.6 0 9.6 20.8 24.8 64.1 44.8 149.2
07/05 22:20 5.2 54 3.72 -3.3 15 15 1020.7 0 9.5 20.8 24.7 63.9 44.5 148.1
07/05 22:10 5.2 52 3.58 -3.8 15 17 1020.7 0 9.2 20.6 24.2 62.5 42.8 142.2
07/05 22:00 5.4 53 3.7 -3.4 11 19 1020.9 0 9.4 20.7 24.6 63.5 44.2 146.9
07/05 21:50 5.3 50 3.47 -4.3 6 6 1021 0 9.0 20.4 23.8 61.4 41.4 137.4
07/05 21:40 5.9 50 3.61 -3.7 24 30 1020.9 0 9.2 20.5 24.1 62.3 42.8 142.2
07/05 21:30 5.8 49 3.51 -4.1 7 15 1021 0 9.0 20.3 23.8 61.4 41.7 138.2
07/05 21:20 6 49 3.56 -3.9 13 15 1020.8 0 9.1 20.4 23.9 61.7 42.2 139.9
07/05 21:10 5.5 50 3.51 -4.1 15 15 1020.6 0 9.0 20.4 23.8 61.6 41.8 138.7
07/05 21:00 5.6 49 3.47 -4.3 7 11 1020.7 0 8.9 20.3 23.7 61.1 41.3 136.8
07/05 20:50 5.5 50 3.51 -4.1 11 13 1020.6 0 9.0 20.4 23.8 61.6 41.8 138.7
07/05 20:40 5.5 50 3.51 -4.1 7 9 1020.6 0 9.0 20.4 23.8 61.6 41.8 138.7
07/05 20:30 5.7 49 3.49 -4.2 17 24 1020.4 0 9.0 20.3 23.7 61.2 41.5 137.4
07/05 20:20 5.7 49 3.49 -4.2 17 19 1020.5 0 9.0 20.3 23.7 61.2 41.5 137.5
07/05 20:10 5.6 49 3.47 -4.3 19 20 1020.1 0 8.9 20.3 23.7 61.1 41.3 136.7
07/05 20:00 5.6 48 3.4 -4.5 13 19 1020.3 0 8.8 20.2 23.4 60.4 40.4 133.8
07/05 19:50 6.1 45 3.29 -4.9 9 11 1020.2 0 8.6 19.9 22.9 59.0 38.9 128.4

Last Refresh: 08-May-2026 12:09:34

Bureau of Meteorology